createdAt,value
2022-10-22T00:01:01.994Z,15.07
2022-10-22T00:03:31.370Z,15.18
2022-10-22T00:05:59.541Z,16.05
2022-10-22T00:08:27.556Z,15.43
2022-10-22T00:10:55.577Z,15.15
2022-10-22T00:13:23.917Z,15.13
2022-10-22T00:15:51.909Z,14.85
2022-10-22T00:18:19.955Z,15.57
2022-10-22T00:20:49.317Z,15.48
2022-10-22T00:23:17.335Z,14.55
2022-10-22T00:25:45.337Z,14.80
2022-10-22T00:28:13.335Z,15.45
2022-10-22T00:30:41.714Z,14.27
2022-10-22T00:33:09.725Z,14.93
2022-10-22T00:35:37.726Z,14.25
2022-10-22T00:38:07.178Z,15.68
2022-10-22T00:40:35.302Z,14.85
2022-10-22T00:43:03.273Z,15.73
2022-10-22T00:45:31.557Z,16.42
2022-10-22T00:48:02.796Z,16.90
2022-10-22T00:50:35.234Z,15.35
2022-10-22T00:53:04.746Z,14.88
2022-10-22T00:55:35.049Z,16.08
2022-10-22T00:58:03.563Z,16.27
2022-10-22T01:00:31.860Z,16.08
2022-10-22T01:03:00.830Z,15.98
2022-10-22T01:05:30.489Z,15.93
2022-10-22T01:07:58.675Z,15.80
2022-10-22T01:10:39.898Z,14.55
2022-10-22T01:13:18.181Z,14.98
2022-10-22T01:15:53.174Z,14.40
2022-10-22T01:18:25.536Z,14.73
2022-10-22T01:21:12.702Z,16.55
2022-10-22T01:24:15.214Z,14.63
2022-10-22T01:26:58.299Z,13.95
2022-10-22T01:29:32.014Z,14.02
2022-10-22T01:32:03.001Z,14.13
2022-10-22T01:34:33.280Z,13.88
2022-10-22T01:37:01.544Z,14.93
2022-10-22T01:39:32.078Z,15.05
2022-10-22T01:42:00.400Z,15.45
2022-10-22T01:44:31.677Z,14.93
2022-10-22T01:47:10.575Z,15.00
2022-10-22T01:50:00.352Z,15.07
2022-10-22T01:52:36.911Z,14.68
2022-10-22T01:55:10.755Z,16.25
2022-10-22T01:57:45.230Z,15.43
2022-10-22T02:00:18.557Z,14.82
2022-10-22T02:02:52.511Z,15.63
2022-10-22T02:05:25.182Z,15.52
2022-10-22T02:07:59.438Z,16.23
2022-10-22T02:10:28.491Z,15.18
2022-10-22T02:12:58.611Z,16.80
2022-10-22T02:15:30.737Z,15.73
2022-10-22T02:18:01.833Z,14.13
2022-10-22T02:20:32.526Z,14.82
2022-10-22T02:23:01.423Z,15.20
2022-10-22T02:25:32.942Z,15.90
2022-10-22T02:28:08.398Z,15.63
2022-10-22T02:30:39.836Z,15.57
2022-10-22T02:33:12.977Z,14.88
2022-10-22T02:35:43.716Z,13.93
2022-10-22T02:38:12.683Z,15.20
2022-10-22T02:40:40.804Z,15.40
2022-10-22T02:43:08.821Z,15.02
2022-10-22T02:45:39.119Z,16.42
2022-10-22T02:48:07.775Z,15.15
2022-10-22T02:50:35.863Z,13.85
2022-10-22T02:53:03.879Z,15.50
2022-10-22T02:55:31.876Z,14.95
2022-10-22T02:57:59.870Z,14.68
2022-10-22T03:00:27.955Z,13.93
2022-10-22T03:02:57.359Z,14.02
2022-10-22T03:05:25.354Z,13.65
2022-10-22T03:07:53.365Z,14.80
2022-10-22T03:10:21.347Z,15.52
2022-10-22T03:12:49.378Z,15.15
2022-10-22T03:15:17.648Z,15.38
2022-10-22T03:17:45.710Z,14.88
2022-10-22T03:20:15.138Z,15.18
2022-10-22T03:22:44.206Z,14.55
2022-10-22T03:25:15.308Z,14.57
2022-10-22T03:27:44.038Z,14.85
2022-10-22T03:30:12.946Z,14.60
2022-10-22T03:32:40.908Z,14.52
2022-10-22T03:35:09.494Z,14.30
2022-10-22T03:37:39.732Z,16.05
2022-10-22T03:40:11.469Z,14.82
2022-10-22T03:42:39.740Z,14.68
2022-10-22T03:45:09.210Z,14.80
2022-10-22T03:47:37.877Z,15.05
2022-10-22T03:50:07.395Z,14.85
2022-10-22T03:52:38.600Z,14.43
2022-10-22T03:55:07.869Z,14.57
2022-10-22T03:57:35.980Z,15.13
2022-10-22T04:00:06.312Z,15.70
2022-10-22T04:02:34.282Z,14.25
2022-10-22T04:05:02.323Z,14.88
2022-10-22T04:07:30.474Z,15.20
2022-10-22T04:09:59.889Z,14.40
2022-10-22T04:12:27.889Z,14.38
2022-10-22T04:14:55.901Z,14.45
2022-10-22T04:17:23.948Z,15.55
2022-10-22T04:19:51.957Z,13.98
2022-10-22T04:22:19.944Z,14.13
2022-10-22T04:24:48.014Z,13.95
2022-10-22T04:27:17.417Z,14.15
2022-10-22T04:29:45.434Z,13.65
2022-10-22T04:32:13.456Z,13.07
2022-10-22T04:34:41.430Z,13.43
2022-10-22T04:37:09.446Z,12.25
2022-10-22T04:39:37.450Z,12.48
2022-10-22T04:42:05.873Z,13.68
2022-10-22T04:44:35.441Z,12.10
2022-10-22T04:47:03.494Z,12.63
2022-10-22T04:49:31.497Z,12.85
2022-10-22T04:51:59.483Z,13.07
2022-10-22T04:54:30.502Z,13.80
2022-10-22T04:57:01.315Z,13.30
2022-10-22T04:59:29.391Z,13.27
2022-10-22T05:01:58.752Z,13.60
2022-10-22T05:04:26.747Z,14.05
2022-10-22T05:06:54.767Z,13.75
2022-10-22T05:09:22.864Z,14.00
2022-10-22T05:11:52.994Z,13.98
2022-10-22T05:14:23.330Z,14.07
2022-10-22T05:16:52.300Z,14.40
2022-10-22T05:19:24.422Z,14.32
2022-10-22T05:21:52.852Z,13.88
2022-10-22T05:24:20.889Z,14.02
2022-10-22T05:26:50.894Z,14.35
2022-10-22T05:29:19.229Z,13.90
2022-10-22T05:31:47.290Z,14.00
2022-10-22T05:34:15.654Z,14.35
2022-10-22T05:36:45.094Z,15.57
2022-10-22T05:39:13.806Z,14.60
2022-10-22T05:41:41.793Z,13.95
2022-10-22T05:44:13.068Z,13.38
2022-10-22T05:46:43.310Z,13.52
2022-10-22T05:49:14.715Z,13.27
2022-10-22T05:51:44.300Z,12.98
2022-10-22T05:54:17.786Z,13.38
2022-10-22T05:56:45.770Z,13.30
2022-10-22T05:59:13.858Z,13.43
2022-10-22T06:01:42.277Z,13.38
2022-10-22T06:04:12.954Z,14.10
2022-10-22T06:06:44.448Z,13.32
2022-10-22T06:09:18.441Z,13.52
2022-10-22T06:11:47.721Z,13.23
2022-10-22T06:14:16.426Z,13.88
2022-10-22T06:16:46.359Z,13.90
2022-10-22T06:19:16.749Z,13.13
2022-10-22T06:21:45.539Z,12.90
2022-10-22T06:24:15.336Z,12.60
2022-10-22T06:26:43.801Z,12.48
2022-10-22T06:29:12.322Z,11.95
2022-10-22T06:31:40.320Z,13.18
2022-10-22T06:34:11.736Z,13.18
2022-10-22T06:39:16.982Z,14.07
2022-10-22T06:41:45.068Z,13.55
2022-10-22T06:44:19.146Z,13.05
2022-10-22T06:46:50.053Z,13.95
2022-10-22T06:49:18.214Z,13.20
2022-10-22T06:51:49.686Z,13.13
2022-10-22T06:54:20.403Z,13.15
2022-10-22T06:56:48.666Z,13.52
2022-10-22T06:59:16.726Z,12.85
2022-10-22T07:01:44.754Z,13.52
2022-10-22T07:04:12.845Z,12.50
2022-10-22T07:06:40.903Z,13.15
2022-10-22T07:09:09.007Z,13.32
2022-10-22T07:11:42.017Z,14.25
2022-10-22T07:14:10.905Z,13.75
2022-10-22T07:16:39.153Z,13.15
2022-10-22T07:19:07.180Z,13.10
2022-10-22T07:21:35.477Z,13.60
2022-10-22T07:24:03.493Z,13.70
2022-10-22T07:26:32.745Z,13.35
2022-10-22T07:29:02.492Z,13.00
2022-10-22T07:31:31.102Z,13.38
2022-10-22T07:33:59.467Z,12.32
2022-10-22T07:36:27.688Z,11.70
2022-10-22T07:38:59.702Z,11.05
2022-10-22T07:41:33.676Z,11.88
2022-10-22T07:44:03.195Z,11.02
2022-10-22T07:46:31.505Z,9.75
2022-10-22T07:48:59.587Z,10.65
2022-10-22T07:51:28.344Z,9.70
2022-10-22T07:53:56.507Z,8.98
2022-10-22T07:56:24.607Z,8.93
2022-10-22T07:58:52.673Z,8.43
2022-10-22T08:01:22.169Z,8.13
2022-10-22T08:03:50.234Z,8.98
2022-10-22T08:06:18.795Z,8.00
2022-10-22T08:08:47.083Z,7.85
2022-10-22T08:11:15.224Z,8.27
2022-10-22T08:13:45.540Z,7.40
2022-10-22T08:16:14.187Z,7.10
2022-10-22T08:18:43.789Z,7.50
2022-10-22T08:21:12.229Z,6.93
2022-10-22T08:23:40.569Z,7.32
2022-10-22T08:26:08.612Z,6.63
2022-10-22T08:28:37.268Z,6.90
2022-10-22T08:31:07.365Z,6.53
2022-10-22T08:33:35.481Z,6.50
2022-10-22T08:36:05.239Z,6.70
2022-10-22T08:38:33.465Z,6.20
2022-10-22T08:41:08.742Z,6.30
2022-10-22T08:44:08.238Z,6.55
2022-10-22T08:46:51.090Z,6.70
2022-10-22T08:49:24.009Z,6.85
2022-10-22T08:51:54.121Z,6.78
2022-10-22T08:54:33.474Z,6.53
2022-10-22T08:57:32.708Z,6.10
2022-10-22T09:00:05.674Z,6.15
2022-10-22T09:02:53.376Z,6.82
2022-10-22T09:05:34.566Z,6.30
2022-10-22T09:08:04.146Z,6.68
2022-10-22T09:10:36.518Z,5.43
2022-10-22T09:13:04.661Z,5.88
2022-10-22T09:15:32.720Z,6.30
2022-10-22T09:18:11.657Z,6.93
2022-10-22T09:20:46.151Z,6.00
2022-10-22T09:23:26.561Z,6.35
2022-10-22T09:25:55.464Z,6.20
2022-10-22T09:28:23.564Z,6.43
2022-10-22T09:30:51.818Z,6.10
2022-10-22T09:33:24.732Z,6.70
2022-10-22T09:35:55.040Z,6.10
2022-10-22T09:38:27.397Z,6.10
2022-10-22T09:40:57.783Z,7.00
2022-10-22T09:43:26.189Z,5.93
2022-10-22T09:45:58.549Z,5.88
2022-10-22T09:48:32.170Z,6.30
2022-10-22T09:51:06.395Z,5.82
2022-10-22T09:53:43.597Z,5.03
2022-10-22T09:56:20.515Z,5.35
2022-10-22T09:58:51.303Z,4.72
2022-10-22T10:01:21.286Z,5.10
2022-10-22T10:04:08.453Z,5.05
2022-10-22T10:06:56.221Z,5.00
2022-10-22T10:09:53.811Z,5.65
2022-10-22T10:12:31.986Z,4.90
2022-10-22T10:15:10.044Z,4.45
2022-10-22T10:17:45.071Z,4.68
2022-10-22T10:20:25.129Z,4.90
2022-10-22T10:22:59.768Z,4.90
2022-10-22T10:25:38.746Z,4.68
2022-10-22T10:28:20.986Z,5.15
2022-10-22T10:31:13.016Z,4.00
2022-10-22T10:33:52.966Z,4.35
2022-10-22T10:36:33.179Z,5.05
2022-10-22T10:39:06.337Z,3.90
2022-10-22T10:41:45.124Z,4.10
2022-10-22T10:44:38.405Z,4.10
2022-10-22T10:47:19.882Z,4.40
2022-10-22T10:49:49.048Z,4.82
2022-10-22T10:52:30.741Z,4.55
2022-10-22T10:55:10.555Z,4.70
2022-10-22T10:57:48.095Z,4.63
2022-10-22T11:00:19.813Z,4.38
2022-10-22T11:03:33.680Z,4.97
2022-10-22T11:06:04.685Z,4.78
2022-10-22T11:08:35.719Z,4.47
2022-10-22T11:11:08.571Z,4.43
2022-10-22T11:13:42.193Z,4.75
2022-10-22T11:16:17.967Z,4.15
2022-10-22T11:18:49.887Z,4.55
2022-10-22T11:21:25.997Z,4.60
2022-10-22T11:24:02.255Z,4.53
2022-10-22T11:26:39.119Z,5.18
2022-10-22T11:29:14.307Z,5.10
2022-10-22T11:31:43.178Z,4.95
2022-10-22T11:34:34.473Z,5.20
2022-10-22T11:37:05.132Z,4.57
2022-10-22T11:39:40.019Z,5.03
2022-10-22T11:42:12.066Z,5.95
2022-10-22T11:45:03.636Z,5.05
2022-10-22T11:47:35.424Z,5.07
2022-10-22T11:50:28.507Z,5.45
2022-10-22T11:53:03.030Z,5.07
2022-10-22T11:55:49.324Z,4.88
2022-10-22T11:58:42.320Z,5.57
2022-10-22T12:01:25.844Z,5.25
2022-10-22T12:04:15.413Z,5.00
2022-10-22T12:07:01.407Z,5.68
2022-10-22T12:09:32.875Z,5.22
2022-10-22T12:12:13.702Z,5.25
2022-10-22T12:14:54.273Z,5.55
2022-10-22T12:17:25.007Z,4.88
2022-10-22T12:20:01.986Z,4.95
2022-10-22T12:22:33.317Z,5.03
2022-10-22T12:25:04.096Z,5.55
2022-10-22T12:27:37.972Z,4.82
2022-10-22T12:30:21.302Z,4.90
2022-10-22T12:32:53.880Z,5.30
2022-10-22T12:35:25.861Z,4.90
2022-10-22T12:37:56.490Z,5.10
2022-10-22T12:40:26.832Z,6.00
2022-10-22T12:42:57.021Z,4.88
2022-10-22T12:45:28.648Z,4.78
2022-10-22T12:48:01.696Z,4.95
2022-10-22T12:50:35.275Z,5.03
2022-10-22T12:53:03.587Z,5.47
2022-10-22T12:55:34.920Z,4.97
2022-10-22T12:58:07.255Z,5.03
2022-10-22T13:00:37.055Z,6.03
2022-10-22T13:03:08.271Z,5.30
2022-10-22T13:05:39.904Z,4.80
2022-10-22T13:08:12.650Z,5.28
2022-10-22T13:10:42.647Z,4.70
2022-10-22T13:13:33.348Z,5.15
2022-10-22T13:16:19.484Z,5.65
2022-10-22T13:18:49.900Z,5.40
2022-10-22T13:21:35.336Z,5.50
2022-10-22T13:24:05.893Z,5.13
2022-10-22T13:26:36.734Z,6.15
2022-10-22T13:29:12.233Z,5.20
2022-10-22T13:31:47.143Z,5.72
2022-10-22T13:34:19.946Z,5.70
2022-10-22T13:36:48.712Z,6.10
2022-10-22T13:39:19.685Z,6.57
2022-10-22T13:41:50.319Z,5.60
2022-10-22T13:44:18.894Z,5.43
2022-10-22T13:46:47.755Z,5.80
2022-10-22T13:49:19.057Z,5.82
2022-10-22T13:51:48.160Z,5.18
2022-10-22T13:54:19.969Z,5.55
2022-10-22T13:56:48.420Z,6.32
2022-10-22T13:59:19.717Z,6.15
2022-10-22T14:01:51.206Z,5.95
2022-10-22T14:04:20.924Z,5.45
2022-10-22T14:06:49.218Z,5.60
2022-10-22T14:09:23.131Z,5.72
2022-10-22T14:11:51.380Z,5.50
2022-10-22T14:14:19.635Z,5.75
2022-10-22T14:16:48.122Z,5.93
2022-10-22T14:19:18.993Z,6.10
2022-10-22T14:21:49.342Z,6.38
2022-10-22T14:24:17.698Z,6.07
2022-10-22T14:26:45.945Z,6.20
2022-10-22T14:29:14.283Z,7.38
2022-10-22T14:31:44.973Z,6.10
2022-10-22T14:34:15.661Z,6.90
2022-10-22T14:36:44.753Z,5.75
2022-10-22T14:39:14.991Z,6.82
2022-10-22T14:41:43.882Z,5.70
2022-10-22T14:44:14.384Z,5.20
2022-10-22T14:46:44.463Z,6.00
2022-10-22T14:49:13.291Z,6.53
2022-10-22T14:51:41.926Z,5.88
2022-10-22T14:54:10.168Z,5.68
2022-10-22T14:56:39.884Z,4.50
2022-10-22T14:59:08.184Z,5.40
2022-10-22T15:01:36.483Z,4.93
2022-10-22T15:04:04.978Z,5.10
2022-10-22T15:06:33.276Z,4.63
2022-10-22T15:09:01.757Z,5.47
2022-10-22T15:11:30.025Z,4.68
2022-10-22T15:13:59.770Z,5.20
2022-10-22T15:16:28.126Z,4.68
2022-10-22T15:18:57.293Z,5.40
2022-10-22T15:21:25.618Z,4.22
2022-10-22T15:23:53.901Z,5.32
2022-10-22T15:26:22.192Z,5.40
2022-10-22T15:28:50.517Z,4.40
2022-10-22T15:31:44.503Z,4.03
2022-10-22T15:34:12.964Z,3.60
2022-10-22T15:36:41.290Z,2.97
2022-10-22T15:39:10.808Z,4.78
2022-10-22T15:41:39.412Z,6.28
2022-10-22T15:44:08.671Z,5.00
2022-10-22T15:46:38.437Z,4.00
2022-10-22T15:49:06.754Z,3.20
2022-10-22T15:51:35.067Z,3.70
2022-10-22T15:54:06.445Z,3.70
2022-10-22T15:56:37.625Z,3.72
2022-10-22T15:59:05.951Z,3.47
2022-10-22T16:01:35.779Z,4.00
2022-10-22T16:04:06.262Z,3.50
2022-10-22T16:06:37.648Z,4.13
2022-10-22T16:09:09.318Z,4.88
2022-10-22T16:11:38.450Z,5.30
2022-10-22T16:14:07.147Z,4.35
2022-10-22T16:16:39.419Z,4.30
2022-10-22T16:19:08.772Z,5.78
2022-10-22T16:21:36.826Z,4.93
2022-10-22T16:24:06.335Z,6.88
2022-10-22T16:26:35.313Z,5.05
2022-10-22T16:29:04.218Z,5.20
2022-10-22T16:31:32.226Z,4.20
2022-10-22T16:34:00.231Z,3.85
2022-10-22T16:36:29.662Z,3.95
2022-10-22T16:38:57.721Z,4.68
2022-10-22T16:41:34.861Z,4.72
2022-10-22T16:44:05.368Z,4.28
2022-10-22T16:46:34.147Z,4.55
2022-10-22T16:49:02.148Z,3.92
2022-10-22T16:51:31.567Z,3.67
2022-10-22T16:53:59.554Z,3.58
2022-10-22T16:56:28.045Z,3.78
2022-10-22T16:58:57.794Z,3.75
2022-10-22T17:01:29.063Z,3.67
2022-10-22T17:03:57.221Z,3.80
2022-10-22T17:06:25.893Z,3.67
2022-10-22T17:08:55.444Z,3.92
2022-10-22T17:11:25.429Z,3.60
2022-10-22T17:13:55.177Z,3.55
2022-10-22T17:16:24.894Z,3.63
2022-10-22T17:18:54.669Z,3.17
2022-10-22T17:21:22.813Z,3.58
2022-10-22T17:23:54.667Z,3.10
2022-10-22T17:26:26.486Z,3.10
2022-10-22T17:28:55.095Z,3.13
2022-10-22T17:31:24.581Z,3.10
2022-10-22T17:33:54.794Z,3.55
2022-10-22T17:36:23.943Z,3.22
2022-10-22T17:38:54.289Z,3.83
2022-10-22T17:41:26.112Z,2.97
2022-10-22T17:43:54.326Z,3.08
2022-10-22T17:46:24.525Z,3.17
2022-10-22T17:48:53.267Z,3.55
2022-10-22T17:51:22.569Z,4.85
2022-10-22T17:53:51.298Z,4.35
2022-10-22T17:56:20.834Z,4.63
2022-10-22T17:58:50.663Z,4.35
2022-10-22T18:01:21.381Z,4.22
2022-10-22T18:03:49.657Z,4.30
2022-10-22T18:06:17.861Z,3.45
2022-10-22T18:08:46.103Z,4.03
2022-10-22T18:11:15.655Z,3.30
2022-10-22T18:13:43.814Z,3.20
2022-10-22T18:16:13.629Z,3.50
2022-10-22T18:18:41.726Z,3.60
2022-10-22T18:21:09.690Z,3.63
2022-10-22T18:23:38.022Z,3.33
2022-10-22T18:26:06.565Z,3.90
2022-10-22T18:28:34.821Z,3.83
2022-10-22T18:31:07.283Z,4.47
2022-10-22T18:33:37.842Z,5.13
2022-10-22T18:36:07.823Z,4.80
2022-10-22T18:38:38.183Z,4.40
2022-10-22T18:41:07.914Z,4.18
2022-10-22T18:43:36.678Z,3.78
2022-10-22T18:46:08.145Z,3.70
2022-10-22T18:48:37.941Z,3.45
2022-10-22T18:51:08.483Z,3.47
2022-10-22T18:53:36.874Z,3.63
2022-10-22T18:56:06.611Z,4.03
2022-10-22T18:58:38.944Z,4.05
2022-10-22T19:01:10.565Z,4.03
2022-10-22T19:03:40.006Z,4.43
2022-10-22T19:06:08.789Z,4.70
2022-10-22T19:08:37.984Z,5.40
2022-10-22T19:11:11.217Z,5.53
2022-10-22T19:13:39.269Z,5.50
2022-10-22T19:16:09.237Z,6.85
2022-10-22T19:18:39.581Z,6.10
2022-10-22T19:21:07.614Z,5.55
2022-10-22T19:23:35.783Z,6.93
2022-10-22T19:26:06.953Z,7.25
2022-10-22T19:28:35.090Z,7.05
2022-10-22T19:31:05.515Z,7.82
2022-10-22T19:33:35.130Z,8.05
2022-10-22T19:36:07.052Z,7.57
2022-10-22T19:38:35.158Z,8.20
2022-10-22T19:41:03.134Z,7.57
2022-10-22T19:43:31.150Z,8.82
2022-10-22T19:45:59.141Z,8.30
2022-10-22T19:48:28.715Z,7.85
2022-10-22T19:51:02.760Z,8.02
2022-10-22T19:53:32.731Z,7.75
2022-10-22T19:56:01.748Z,8.88
2022-10-22T19:58:29.878Z,9.95
2022-10-22T20:00:57.931Z,10.05
2022-10-22T20:03:26.006Z,9.15
2022-10-22T20:05:54.066Z,10.38
2022-10-22T20:08:22.072Z,10.27
2022-10-22T20:10:51.489Z,9.30
2022-10-22T20:13:19.502Z,9.52
2022-10-22T20:15:49.321Z,10.38
2022-10-22T20:18:17.453Z,9.35
2022-10-22T20:20:45.541Z,8.50
2022-10-22T20:23:13.601Z,8.27
2022-10-22T20:25:43.547Z,8.77
2022-10-22T20:28:14.952Z,7.97
2022-10-22T20:30:43.458Z,8.18
2022-10-22T20:33:16.574Z,8.32
2022-10-22T20:35:44.913Z,7.95
2022-10-22T20:38:15.748Z,8.05
2022-10-22T20:40:43.785Z,8.05
2022-10-22T20:43:13.178Z,7.75
2022-10-22T20:45:41.197Z,7.82
2022-10-22T20:48:09.924Z,7.35
2022-10-22T20:50:38.279Z,7.45
2022-10-22T20:53:06.282Z,7.65
2022-10-22T20:55:34.332Z,8.07
2022-10-22T20:58:02.388Z,8.57
2022-10-22T21:00:35.828Z,9.13
2022-10-22T21:03:03.905Z,8.52
2022-10-22T21:05:31.881Z,8.18
2022-10-22T21:07:59.898Z,8.38
2022-10-22T21:10:32.286Z,7.68
2022-10-22T21:13:01.210Z,8.40
2022-10-22T21:15:29.394Z,8.48
2022-10-22T21:17:58.761Z,8.32
2022-10-22T21:20:26.756Z,8.82
2022-10-22T21:22:54.773Z,9.35
2022-10-22T21:25:22.750Z,10.32
2022-10-22T21:27:50.899Z,9.77
2022-10-22T21:30:18.954Z,11.52
2022-10-22T21:32:46.921Z,11.63
2022-10-22T21:35:16.431Z,10.60
2022-10-22T21:37:44.621Z,11.05
2022-10-22T21:40:13.649Z,10.65
2022-10-22T21:42:41.730Z,12.50
2022-10-22T21:45:13.173Z,11.38
2022-10-22T21:47:43.223Z,11.10
2022-10-22T21:50:11.412Z,12.38
2022-10-22T21:52:40.798Z,12.40
2022-10-22T21:55:09.611Z,12.63
2022-10-22T21:57:37.717Z,12.00
2022-10-22T22:00:07.203Z,13.02
2022-10-22T22:02:35.240Z,12.60
2022-10-22T22:05:03.250Z,13.05
2022-10-22T22:07:31.366Z,13.52
2022-10-22T22:10:00.765Z,15.13
2022-10-22T22:12:28.742Z,15.55
2022-10-22T22:14:56.890Z,16.42
2022-10-22T22:17:24.922Z,14.40
2022-10-22T22:19:52.945Z,15.13
2022-10-22T22:22:20.939Z,14.43
2022-10-22T22:24:49.090Z,14.90
2022-10-22T22:29:46.366Z,14.27
2022-10-22T22:32:15.820Z,14.07
2022-10-22T22:34:43.957Z,15.68
2022-10-22T22:37:12.000Z,14.93
2022-10-22T22:39:40.110Z,15.75
2022-10-22T22:42:08.106Z,15.32
2022-10-22T22:44:37.498Z,15.30
2022-10-22T22:47:05.678Z,15.45
2022-10-22T22:49:35.508Z,14.90
2022-10-22T22:52:03.966Z,15.15
2022-10-22T22:54:32.030Z,15.52
2022-10-22T22:57:00.094Z,16.05
2022-10-22T22:59:28.086Z,14.88
2022-10-22T23:01:57.616Z,15.00
2022-10-22T23:04:26.308Z,15.40
2022-10-22T23:06:54.322Z,15.18
2022-10-22T23:09:22.474Z,14.23
2022-10-22T23:11:50.854Z,14.90
2022-10-22T23:14:20.698Z,15.07
2022-10-22T23:16:51.031Z,15.48
2022-10-22T23:19:22.105Z,15.15
2022-10-22T23:21:51.825Z,15.68
2022-10-22T23:24:21.829Z,17.27
2022-10-22T23:26:52.018Z,15.63
2022-10-22T23:29:22.274Z,15.82
2022-10-22T23:31:50.954Z,15.65
2022-10-22T23:34:22.482Z,15.77
2022-10-22T23:36:51.229Z,15.82
2022-10-22T23:39:20.699Z,16.08
2022-10-22T23:41:48.673Z,16.30
2022-10-22T23:44:16.872Z,14.95
2022-10-22T23:46:45.034Z,14.68
2022-10-22T23:49:13.233Z,14.98
2022-10-22T23:51:42.974Z,15.55
2022-10-22T23:54:14.435Z,13.98
2022-10-22T23:56:42.645Z,14.38
2022-10-22T23:59:11.320Z,15.48
